Ogaki, Japan
Current Conditions -  °F | °C
As of 6:30 AM on Saturday 25 Oct 2014 (Local Time) from RJGG Reporting Station
Few Clouds Few Clouds  
Wind Chill: 57°   Ceiling: Unl
Heat Index: 57°   Visibility: 6mi
Dew Point: 55°   Wind: 7mph
Humidity: 94%   Direction: 10°N
Pressure: 30.18"   Gusts: NA
Location:  35.37°N, 136.61°E
Report Text: RJGG 242130Z 01006KT 9999 FEW010 14/13 Q1022 NOSIG
Loading
Personal Weather Stations






























Interactive Weather Map
Tropical Storm Tracking
New forecast layout! Learn more

10-Day Weather Forecast

Advertisements
Track Severe Weather on mobile